Kenosha, WI (53141)

2:16 PM CDT on July 25, 2016 (GMT -0500)
East Kenosha | | Change Station

Elev 610 ft 42.59 °N, 87.82 °W | Updated 1 minute ago

Clear
Clear
86.6 °F
Feels Like 92 °F
N
6.3
Wind Variable Wind from SSW
Gusts 8.3 mph

Today
High -- | Low -- °F
--% Chance of Precip.
Yesterday
High -- | Low -- °F
Precip. -- in
Pressure 29.99 in
Visibility 10.0 miles
Clouds Clear
Heat Index 92 °F
Dew Point 70 °F
Humidity 58%
Rainfall 0.00 in
Snow Depth Not available.
5:36 AM 8:18 PM
Waning Gibbous, 63% visible
METAR KENW 251853Z 36007KT 330V030 10SM CLR 30/18 A3000 RMK AO2 SLP153 T03000183
Pressure 29.99 in
Visibility 10.0 miles
Clouds Clear
Heat Index 92 °F
Dew Point 70 °F
Humidity 58%
Rainfall 0.00 in
Snow Depth Not available.
5:36 AM 8:18 PM
Waning Gibbous, 63% visible
METAR KENW 251853Z 36007KT 330V030 10SM CLR 30/18 A3000 RMK AO2 SLP153 T03000183

10-Day Weather Forecast

Almanac

Astronomy

Jul. 25, 2016 Rise Set
Actual Time
Civil Twilight
Nautical Twilight
Astronomical Twilight
Moon
Length of Visible Light
Length of Day
Tomorrow will be .
, % of the Moon is Illuminated

Today's Extremes

State Highs State Lows

Community

WunderPhotos

Upload Photos

1,927,373 photos uploaded!

WunderBlog® & News

Nearby

Air Quality

  Air Quality AQ Index Pollutant
Not available.

Snow Depth

Station Depth Elevation

Earthquake Activity

City Distance Mag. Time & Date
Minimum magnitude displayed is 2.5.

Coastal Water Temperatures

Place Temperature

Stations

Nearby Weather Stations

Station Location Temp. Windchill Dew Point Humidity Wind Precip. Elev Updated Type
                   

Watches & Warnings

There are currently no watches in effect.